createdAt,value
2022-12-18T00:01:32.583Z,9.04
2022-12-18T00:04:01.003Z,9.02
2022-12-18T00:06:30.507Z,8.92
2022-12-18T00:08:59.004Z,8.89
2022-12-18T00:11:29.121Z,8.79
2022-12-18T00:13:58.614Z,8.82
2022-12-18T00:16:28.047Z,8.84
2022-12-18T00:18:57.264Z,8.80
2022-12-18T00:21:24.389Z,8.84
2022-12-18T00:23:51.738Z,8.77
2022-12-18T00:26:25.068Z,8.73
2022-12-18T00:28:52.951Z,8.71
2022-12-18T00:31:22.844Z,8.78
2022-12-18T00:33:53.851Z,8.67
2022-12-18T00:36:25.365Z,8.70
2022-12-18T00:38:52.972Z,8.67
2022-12-18T00:41:39.278Z,8.69
2022-12-18T00:44:08.420Z,8.67
2022-12-18T00:46:35.476Z,8.69
2022-12-18T00:49:03.076Z,8.71
2022-12-18T00:51:33.449Z,8.67
2022-12-18T00:54:00.627Z,8.68
2022-12-18T00:56:27.593Z,8.71
2022-12-18T00:58:55.266Z,8.69
2022-12-18T01:01:22.665Z,8.64
2022-12-18T01:03:50.019Z,8.70
2022-12-18T01:06:18.262Z,8.69
2022-12-18T01:08:46.269Z,8.72
2022-12-18T01:11:19.300Z,8.68
2022-12-18T01:13:46.795Z,8.58
2022-12-18T01:16:15.436Z,8.53
2022-12-18T01:18:42.776Z,8.55
2022-12-18T01:21:12.151Z,8.50
2022-12-18T01:23:39.697Z,8.54
2022-12-18T01:26:09.531Z,8.57
2022-12-18T01:28:37.329Z,8.54
2022-12-18T01:31:25.195Z,8.62
2022-12-18T01:33:53.846Z,8.63
2022-12-18T01:36:26.944Z,8.60
2022-12-18T01:38:54.687Z,8.55
2022-12-18T01:41:25.382Z,8.56
2022-12-18T01:43:59.251Z,8.58
2022-12-18T01:46:27.676Z,8.59
2022-12-18T01:49:00.939Z,8.65
2022-12-18T01:51:31.077Z,8.67
2022-12-18T01:53:59.119Z,8.61
2022-12-18T01:56:25.904Z,8.67
2022-12-18T01:59:06.096Z,8.64
2022-12-18T02:01:34.494Z,8.63
2022-12-18T02:04:22.824Z,8.66
2022-12-18T02:06:56.695Z,8.65
2022-12-18T02:09:34.673Z,8.61
2022-12-18T02:12:19.393Z,8.57
2022-12-18T02:15:25.623Z,8.53
2022-12-18T02:18:08.584Z,8.50
2022-12-18T02:20:45.313Z,8.45
2022-12-18T02:23:49.971Z,8.47
2022-12-18T02:26:55.744Z,8.37
2022-12-18T02:29:31.121Z,8.32
2022-12-18T02:32:00.624Z,8.31
2022-12-18T02:34:33.013Z,8.32
2022-12-18T02:37:03.692Z,8.37
2022-12-18T02:39:32.198Z,8.39
2022-12-18T02:42:00.873Z,8.41
2022-12-18T02:44:28.025Z,8.39
2022-12-18T02:46:55.693Z,8.43
2022-12-18T02:49:41.362Z,8.43
2022-12-18T02:52:30.777Z,8.37
2022-12-18T02:55:00.780Z,8.33
2022-12-18T02:57:30.775Z,8.33
2022-12-18T03:00:15.804Z,8.37
2022-12-18T03:03:02.375Z,8.32
2022-12-18T03:05:37.640Z,8.29
2022-12-18T03:08:11.731Z,8.25
2022-12-18T03:10:47.131Z,8.30
2022-12-18T03:13:23.472Z,8.27
2022-12-18T03:15:54.556Z,8.23
2022-12-18T03:18:30.961Z,8.18
2022-12-18T03:21:04.532Z,8.15
2022-12-18T03:23:38.315Z,8.11
2022-12-18T03:26:11.332Z,8.03
2022-12-18T03:28:43.521Z,7.93
2022-12-18T03:31:14.150Z,7.92
2022-12-18T03:33:54.283Z,7.94
2022-12-18T03:36:22.091Z,7.96
2022-12-18T03:38:49.186Z,7.91
2022-12-18T03:41:39.590Z,7.98
2022-12-18T03:44:21.017Z,7.95
2022-12-18T03:47:15.146Z,7.93
2022-12-18T03:49:55.650Z,7.97
2022-12-18T03:52:36.612Z,7.94
2022-12-18T03:55:06.874Z,7.93
2022-12-18T03:57:35.162Z,7.94
2022-12-18T04:00:10.825Z,7.96
2022-12-18T04:02:42.798Z,7.92
2022-12-18T04:05:12.142Z,7.90
2022-12-18T04:07:40.279Z,7.87
2022-12-18T04:10:10.493Z,7.80
2022-12-18T04:12:38.847Z,7.77
2022-12-18T04:15:07.090Z,7.76
2022-12-18T04:17:33.973Z,7.81
2022-12-18T04:20:01.096Z,7.64
2022-12-18T04:22:28.506Z,7.60
2022-12-18T04:24:55.722Z,7.65
2022-12-18T04:27:22.848Z,7.66
2022-12-18T04:29:53.147Z,7.64
2022-12-18T04:32:20.291Z,7.63
2022-12-18T04:34:47.298Z,7.64
2022-12-18T04:37:14.506Z,7.62
2022-12-18T04:39:41.511Z,7.62
2022-12-18T04:42:08.724Z,7.64
2022-12-18T04:44:35.661Z,7.63
2022-12-18T04:47:02.742Z,7.63
2022-12-18T04:49:29.942Z,7.65
2022-12-18T04:51:56.922Z,7.56
2022-12-18T04:54:23.857Z,7.54
2022-12-18T04:56:51.132Z,7.51
2022-12-18T04:59:18.163Z,7.51
2022-12-18T05:01:45.288Z,7.48
2022-12-18T05:04:12.730Z,7.41
2022-12-18T05:06:39.758Z,7.39
2022-12-18T05:09:06.979Z,7.42
2022-12-18T05:11:34.061Z,7.32
2022-12-18T05:14:01.153Z,7.37
2022-12-18T05:16:28.166Z,7.42
2022-12-18T05:18:55.450Z,7.39
2022-12-18T05:21:22.886Z,7.43
2022-12-18T05:23:50.108Z,7.40
2022-12-18T05:26:18.811Z,7.41
2022-12-18T05:28:45.972Z,7.40
2022-12-18T05:31:13.582Z,7.39
2022-12-18T05:33:41.163Z,7.38
2022-12-18T05:36:10.236Z,7.37
2022-12-18T05:38:39.245Z,7.36
2022-12-18T05:41:07.053Z,7.46
2022-12-18T05:43:37.331Z,7.29
2022-12-18T05:46:07.294Z,7.23
2022-12-18T05:48:34.592Z,7.27
2022-12-18T05:51:07.927Z,7.28
2022-12-18T05:53:36.308Z,7.31
2022-12-18T05:56:05.550Z,7.30
2022-12-18T05:58:33.628Z,7.33
2022-12-18T06:01:07.557Z,7.40
2022-12-18T06:03:34.841Z,7.40
2022-12-18T06:06:02.045Z,7.34
2022-12-18T06:08:29.083Z,7.31
2022-12-18T06:10:56.303Z,7.24
2022-12-18T06:13:24.231Z,7.31
2022-12-18T06:15:51.272Z,7.25
2022-12-18T06:18:18.328Z,7.21
2022-12-18T06:20:45.268Z,7.36
2022-12-18T06:23:12.243Z,7.26
2022-12-18T06:25:41.121Z,7.30
2022-12-18T06:28:08.327Z,7.36
2022-12-18T06:30:35.517Z,7.36
2022-12-18T06:33:02.817Z,7.38
2022-12-18T06:35:30.372Z,7.34
2022-12-18T06:37:57.432Z,7.36
2022-12-18T06:40:24.718Z,7.37
2022-12-18T06:42:52.037Z,7.39
2022-12-18T06:45:19.192Z,7.39
2022-12-18T06:47:46.201Z,7.40
2022-12-18T06:50:14.279Z,7.42
2022-12-18T06:52:41.732Z,7.42
2022-12-18T06:55:12.097Z,7.44
2022-12-18T06:57:39.517Z,7.49
2022-12-18T07:00:08.035Z,7.49
2022-12-18T07:02:35.402Z,7.55
2022-12-18T07:05:08.896Z,7.53
2022-12-18T07:07:38.029Z,7.54
2022-12-18T07:10:05.520Z,7.48
2022-12-18T07:12:32.977Z,7.45
2022-12-18T07:14:59.904Z,7.42
2022-12-18T07:17:26.934Z,7.41
2022-12-18T07:19:53.910Z,7.40
2022-12-18T07:22:20.894Z,7.41
2022-12-18T07:24:50.853Z,7.39
2022-12-18T07:27:18.222Z,7.47
2022-12-18T07:29:45.632Z,7.46
2022-12-18T07:32:12.736Z,7.43
2022-12-18T07:34:40.531Z,7.51
2022-12-18T07:37:07.839Z,7.52
2022-12-18T07:39:36.514Z,7.52
2022-12-18T07:42:25.176Z,7.58
2022-12-18T07:44:53.799Z,7.58
2022-12-18T07:47:20.779Z,7.59
2022-12-18T07:49:47.924Z,7.65
2022-12-18T07:52:15.018Z,7.70
2022-12-18T07:54:42.517Z,7.77
2022-12-18T07:57:33.755Z,7.81
2022-12-18T07:59:57.048Z,7.86
2022-12-18T08:02:24.107Z,7.88
2022-12-18T08:04:51.443Z,7.85
2022-12-18T08:07:20.039Z,7.98
2022-12-18T08:09:47.057Z,8.01
2022-12-18T08:12:14.150Z,8.08
2022-12-18T08:14:41.395Z,8.11
2022-12-18T08:17:08.539Z,8.14
2022-12-18T08:19:35.711Z,8.16
2022-12-18T08:22:02.768Z,8.23
2022-12-18T08:24:29.793Z,8.27
2022-12-18T08:27:27.960Z,8.38
2022-12-18T08:29:45.674Z,8.40
2022-12-18T08:32:12.674Z,8.35
2022-12-18T08:34:39.763Z,8.27
2022-12-18T08:37:07.359Z,8.23
2022-12-18T08:39:35.829Z,8.04
2022-12-18T08:42:21.224Z,7.88
2022-12-18T08:44:48.514Z,7.86
2022-12-18T08:47:15.810Z,8.00
2022-12-18T08:49:42.963Z,7.98
2022-12-18T08:52:10.772Z,7.96
2022-12-18T08:54:37.973Z,7.96
2022-12-18T08:57:04.986Z,8.03
2022-12-18T08:59:32.199Z,8.15
2022-12-18T09:01:59.382Z,8.20
2022-12-18T09:04:26.670Z,8.36
2022-12-18T09:06:53.638Z,8.47
2022-12-18T09:09:24.244Z,8.59
2022-12-18T09:11:51.680Z,8.52
2022-12-18T09:14:18.795Z,8.48
2022-12-18T09:16:45.950Z,8.41
2022-12-18T09:19:13.088Z,8.40
2022-12-18T09:21:46.134Z,8.37
2022-12-18T09:24:15.459Z,8.54
2022-12-18T09:26:46.882Z,8.63
2022-12-18T09:29:19.001Z,8.68
2022-12-18T09:31:46.496Z,8.64
2022-12-18T09:34:13.834Z,8.46
2022-12-18T09:36:40.893Z,8.55
2022-12-18T09:39:09.008Z,8.43
2022-12-18T09:41:47.056Z,8.53
2022-12-18T09:44:18.753Z,8.54
2022-12-18T09:47:08.646Z,8.50
2022-12-18T09:49:43.553Z,8.54
2022-12-18T09:52:35.712Z,8.45
2022-12-18T09:55:36.648Z,8.47
2022-12-18T09:58:13.247Z,8.51
2022-12-18T10:00:40.708Z,8.50
2022-12-18T10:03:13.508Z,8.50
2022-12-18T10:06:15.191Z,8.47
2022-12-18T10:08:48.625Z,8.44
2022-12-18T10:11:45.202Z,8.48
2022-12-18T10:14:52.600Z,8.47
2022-12-18T10:17:36.854Z,8.54
2022-12-18T10:20:18.799Z,8.58
2022-12-18T10:22:52.771Z,8.66
2022-12-18T10:25:53.833Z,8.78
2022-12-18T10:28:21.835Z,8.80
2022-12-18T10:30:48.984Z,8.75
2022-12-18T10:33:21.019Z,8.64
2022-12-18T10:35:51.445Z,8.58
2022-12-18T10:38:19.313Z,8.43
2022-12-18T10:41:00.518Z,8.48
2022-12-18T10:43:39.321Z,8.35
2022-12-18T10:46:09.710Z,8.31
2022-12-18T10:48:50.797Z,8.29
2022-12-18T10:51:38.897Z,8.30
2022-12-18T10:54:22.741Z,8.34
2022-12-18T10:56:50.182Z,8.32
2022-12-18T10:59:19.547Z,8.43
2022-12-18T11:01:52.720Z,8.39
2022-12-18T11:04:28.993Z,8.38
2022-12-18T11:07:02.501Z,8.41
2022-12-18T11:09:41.081Z,8.47
2022-12-18T11:12:14.263Z,8.52
2022-12-18T11:14:47.300Z,8.31
2022-12-18T11:17:30.268Z,8.35
2022-12-18T11:20:02.511Z,8.32
2022-12-18T11:22:38.052Z,8.29
2022-12-18T11:25:33.057Z,8.26
2022-12-18T11:28:07.340Z,8.32
2022-12-18T11:30:38.614Z,8.31
2022-12-18T11:33:12.394Z,8.35
2022-12-18T11:35:55.023Z,8.49
2022-12-18T11:38:25.276Z,8.58
2022-12-18T11:41:19.937Z,8.59
2022-12-18T11:44:00.120Z,8.64
2022-12-18T11:46:42.711Z,8.58
2022-12-18T11:49:28.292Z,8.59
2022-12-18T11:52:04.902Z,8.53
2022-12-18T11:54:32.628Z,8.56
2022-12-18T11:57:36.143Z,8.37
2022-12-18T12:00:09.481Z,8.43
2022-12-18T12:03:00.363Z,8.45
2022-12-18T12:06:02.207Z,8.49
2022-12-18T12:08:46.364Z,8.53
2022-12-18T12:11:45.580Z,8.46
2022-12-18T12:14:31.247Z,8.50
2022-12-18T12:17:17.015Z,8.58
2022-12-18T12:20:02.103Z,8.65
2022-12-18T12:22:41.136Z,8.60
2022-12-18T12:25:42.674Z,8.64
2022-12-18T12:28:21.626Z,8.66
2022-12-18T12:31:07.664Z,8.61
2022-12-18T12:33:41.186Z,8.53
2022-12-18T12:36:22.738Z,8.52
2022-12-18T12:38:56.291Z,8.49
2022-12-18T12:41:45.940Z,8.47
2022-12-18T12:44:45.097Z,8.45
2022-12-18T12:47:26.959Z,8.30
2022-12-18T12:49:56.126Z,8.20
2022-12-18T12:52:37.259Z,8.12
2022-12-18T12:55:14.734Z,8.13
2022-12-18T12:57:52.446Z,8.07
2022-12-18T13:00:21.272Z,8.05
2022-12-18T13:03:13.755Z,8.08
2022-12-18T13:05:56.110Z,8.06
2022-12-18T13:08:27.372Z,8.03
2022-12-18T13:11:38.089Z,8.06
2022-12-18T13:14:05.392Z,8.15
2022-12-18T13:16:33.041Z,8.16
2022-12-18T13:19:00.742Z,8.09
2022-12-18T13:21:28.390Z,8.14
2022-12-18T13:23:56.965Z,8.07
2022-12-18T13:26:28.818Z,8.04
2022-12-18T13:28:58.404Z,8.04
2022-12-18T13:31:40.640Z,8.08
2022-12-18T13:34:27.602Z,8.09
2022-12-18T13:36:58.627Z,8.17
2022-12-18T13:39:36.038Z,8.13
2022-12-18T13:42:06.557Z,8.21
2022-12-18T13:44:41.705Z,8.20
2022-12-18T13:47:32.758Z,8.22
2022-12-18T13:50:00.529Z,8.19
2022-12-18T13:52:30.099Z,8.20
2022-12-18T13:55:00.118Z,8.21
2022-12-18T13:57:39.933Z,8.16
2022-12-18T14:00:42.225Z,8.04
2022-12-18T14:03:27.460Z,7.98
2022-12-18T14:06:08.936Z,8.00
2022-12-18T14:08:41.811Z,8.02
2022-12-18T14:11:23.626Z,8.00
2022-12-18T14:13:54.049Z,7.86
2022-12-18T14:16:21.572Z,7.77
2022-12-18T14:19:03.276Z,7.73
2022-12-18T14:21:51.876Z,7.73
2022-12-18T14:24:23.352Z,7.70
2022-12-18T14:26:51.705Z,7.63
2022-12-18T14:29:29.127Z,7.60
2022-12-18T14:32:16.532Z,7.41
2022-12-18T14:34:46.355Z,7.36
2022-12-18T14:37:16.830Z,7.23
2022-12-18T14:39:56.576Z,7.25
2022-12-18T14:42:23.859Z,7.23
2022-12-18T14:45:12.916Z,7.12
2022-12-18T14:47:38.610Z,7.04
2022-12-18T14:50:15.148Z,7.05
2022-12-18T14:52:42.313Z,6.96
2022-12-18T14:55:18.167Z,6.97
2022-12-18T14:57:45.941Z,6.88
2022-12-18T15:00:22.558Z,6.84
2022-12-18T15:02:56.059Z,6.79
2022-12-18T15:05:27.979Z,6.76
2022-12-18T15:07:58.094Z,6.69
2022-12-18T15:10:28.663Z,6.74
2022-12-18T15:13:01.002Z,6.76
2022-12-18T15:15:37.392Z,6.83
2022-12-18T15:18:13.037Z,6.94
2022-12-18T15:20:45.742Z,7.01
2022-12-18T15:23:23.083Z,7.00
2022-12-18T15:26:09.975Z,6.94
2022-12-18T15:28:49.613Z,6.88
2022-12-18T15:31:18.094Z,6.79
2022-12-18T15:33:53.447Z,6.73
2022-12-18T15:36:26.821Z,6.64
2022-12-18T15:39:04.731Z,6.60
2022-12-18T15:41:36.143Z,6.59
2022-12-18T15:44:04.415Z,6.64
2022-12-18T15:46:32.302Z,6.60
2022-12-18T15:49:02.473Z,6.55
2022-12-18T15:51:34.575Z,6.56
2022-12-18T15:54:05.153Z,6.50
2022-12-18T15:56:50.939Z,6.46
2022-12-18T15:59:20.752Z,6.40
2022-12-18T16:01:50.513Z,6.40
2022-12-18T16:04:21.785Z,6.34
2022-12-18T16:09:37.604Z,6.22
2022-12-18T16:12:04.851Z,6.19
2022-12-18T16:14:33.078Z,6.15
2022-12-18T16:17:06.620Z,6.17
2022-12-18T16:19:33.813Z,6.12
2022-12-18T16:22:00.862Z,6.14
2022-12-18T16:24:32.743Z,6.14
2022-12-18T16:27:01.535Z,6.13
2022-12-18T16:29:29.679Z,6.22
2022-12-18T16:31:59.481Z,6.20
2022-12-18T16:34:29.773Z,6.21
2022-12-18T16:37:04.808Z,6.30
2022-12-18T16:39:34.474Z,6.45
2022-12-18T16:42:03.926Z,6.42
2022-12-18T16:44:34.624Z,6.36
2022-12-18T16:47:03.348Z,6.23
2022-12-18T16:49:31.429Z,6.13
2022-12-18T16:51:58.557Z,6.07
2022-12-18T16:54:25.783Z,5.95
2022-12-18T16:56:52.884Z,5.87
2022-12-18T16:59:20.249Z,5.82
2022-12-18T17:01:47.580Z,5.77
2022-12-18T17:04:15.636Z,5.70
2022-12-18T17:06:43.988Z,5.67
2022-12-18T17:09:16.698Z,5.63
2022-12-18T17:11:44.282Z,5.68
2022-12-18T17:14:15.811Z,5.73
2022-12-18T17:16:42.971Z,5.75
2022-12-18T17:19:15.308Z,5.70
2022-12-18T17:21:47.946Z,5.56
2022-12-18T17:24:15.837Z,5.45
2022-12-18T17:26:44.790Z,5.40
2022-12-18T17:29:20.599Z,5.31
2022-12-18T17:31:49.930Z,5.27
2022-12-18T17:34:17.635Z,5.22
2022-12-18T17:36:44.812Z,5.20
2022-12-18T17:39:18.857Z,5.18
2022-12-18T17:41:46.320Z,5.02
2022-12-18T17:44:13.540Z,5.03
2022-12-18T17:46:40.702Z,4.95
2022-12-18T17:49:07.850Z,4.94
2022-12-18T17:51:34.956Z,4.94
2022-12-18T17:54:02.134Z,5.01
2022-12-18T17:56:29.518Z,5.04
2022-12-18T17:58:56.708Z,5.05
2022-12-18T18:01:25.609Z,4.96
2022-12-18T18:03:56.297Z,4.99
2022-12-18T18:06:24.375Z,4.96
2022-12-18T18:08:51.703Z,4.99
2022-12-18T18:11:44.881Z,5.00
2022-12-18T18:14:18.223Z,4.98
2022-12-18T18:16:48.349Z,5.00
2022-12-18T18:19:18.375Z,5.03
2022-12-18T18:21:48.343Z,5.12
2022-12-18T18:24:19.043Z,5.12
2022-12-18T18:26:50.047Z,5.19
2022-12-18T18:29:23.267Z,5.16
2022-12-18T18:31:50.886Z,5.16
2022-12-18T18:34:21.191Z,5.27
2022-12-18T18:36:48.737Z,5.28
2022-12-18T18:39:16.125Z,5.22
2022-12-18T18:41:47.676Z,5.06
2022-12-18T18:44:16.564Z,5.06
2022-12-18T18:46:43.860Z,5.15
2022-12-18T18:49:11.890Z,5.21
2022-12-18T18:51:39.224Z,5.11
2022-12-18T18:54:06.620Z,5.21
2022-12-18T18:56:56.667Z,5.14
2022-12-18T18:59:31.180Z,5.11
2022-12-18T19:01:58.833Z,5.25
2022-12-18T19:04:26.053Z,5.16
2022-12-18T19:06:53.199Z,5.10
2022-12-18T19:09:21.218Z,5.03
2022-12-18T19:12:17.580Z,5.07
2022-12-18T19:14:44.769Z,5.08
2022-12-18T19:17:11.769Z,5.10
2022-12-18T19:19:39.361Z,4.90
2022-12-18T19:22:06.449Z,4.94
2022-12-18T19:24:33.626Z,4.94
2022-12-18T19:27:00.781Z,4.92
2022-12-18T19:29:27.794Z,4.90
2022-12-18T19:31:54.923Z,4.88
2022-12-18T19:34:22.164Z,4.89
2022-12-18T19:36:49.181Z,4.79
2022-12-18T19:39:19.246Z,4.69
2022-12-18T19:41:47.117Z,4.63
2022-12-18T19:44:18.061Z,4.58
2022-12-18T19:46:48.669Z,4.65
2022-12-18T19:49:17.380Z,4.71
2022-12-18T19:51:45.567Z,4.77
2022-12-18T19:54:17.204Z,4.73
2022-12-18T19:56:45.400Z,4.75
2022-12-18T19:59:13.097Z,4.72
2022-12-18T20:01:41.519Z,4.71
2022-12-18T20:04:09.436Z,4.66
2022-12-18T20:06:47.924Z,4.62
2022-12-18T20:09:16.221Z,4.64
2022-12-18T20:11:44.194Z,4.53
2022-12-18T20:14:13.581Z,4.45
2022-12-18T20:16:47.022Z,4.40
2022-12-18T20:19:15.917Z,4.39
2022-12-18T20:21:44.675Z,4.31
2022-12-18T20:24:18.692Z,4.14
2022-12-18T20:26:49.663Z,4.08
2022-12-18T20:29:17.453Z,4.00
2022-12-18T20:31:55.289Z,3.94
2022-12-18T20:34:27.811Z,3.87
2022-12-18T20:36:56.291Z,3.79
2022-12-18T20:39:25.921Z,3.72
2022-12-18T20:41:53.091Z,3.69
2022-12-18T20:44:23.866Z,3.65
2022-12-18T20:46:53.766Z,3.57
2022-12-18T20:49:21.335Z,3.50
2022-12-18T20:51:51.679Z,3.48
2022-12-18T20:54:18.847Z,3.48
2022-12-18T20:56:45.909Z,3.45
2022-12-18T20:59:13.259Z,3.37
2022-12-18T21:01:47.426Z,3.32
2022-12-18T21:04:15.971Z,3.30
2022-12-18T21:06:49.460Z,3.34
2022-12-18T21:09:18.768Z,3.25
2022-12-18T21:12:04.574Z,3.16
2022-12-18T21:14:31.642Z,3.08
2022-12-18T21:17:01.371Z,3.10
2022-12-18T21:19:29.261Z,3.04
2022-12-18T21:21:56.928Z,3.01
2022-12-18T21:24:24.955Z,2.98
2022-12-18T21:26:51.899Z,2.98
2022-12-18T21:29:22.893Z,2.89
2022-12-18T21:31:50.531Z,2.86
2022-12-18T21:34:22.754Z,2.92
2022-12-18T21:36:50.141Z,2.83
2022-12-18T21:39:27.710Z,2.74
2022-12-18T21:42:13.979Z,2.64
2022-12-18T21:44:42.064Z,2.61
2022-12-18T21:47:22.111Z,2.59
2022-12-18T21:49:52.975Z,2.61
2022-12-18T21:55:23.943Z,2.34
2022-12-18T21:57:58.527Z,2.26
2022-12-18T22:00:26.335Z,2.22
2022-12-18T22:03:18.343Z,2.26
2022-12-18T22:05:47.305Z,2.20
2022-12-18T22:08:18.486Z,2.24
2022-12-18T22:10:45.693Z,2.13
2022-12-18T22:13:12.923Z,2.16
2022-12-18T22:15:40.042Z,2.22
2022-12-18T22:18:07.106Z,2.23
2022-12-18T22:20:34.595Z,2.27
2022-12-18T22:23:06.253Z,2.28
2022-12-18T22:25:34.787Z,2.24
2022-12-18T22:28:36.192Z,2.21
2022-12-18T22:31:03.544Z,2.21
2022-12-18T22:33:30.594Z,2.27
2022-12-18T22:35:57.684Z,2.35
2022-12-18T22:38:24.742Z,2.35
2022-12-18T22:40:51.986Z,2.45
2022-12-18T22:43:18.927Z,2.49
2022-12-18T22:45:48.045Z,2.50
2022-12-18T22:48:15.656Z,2.49
2022-12-18T22:50:43.639Z,2.45
2022-12-18T22:53:11.081Z,2.41
2022-12-18T22:55:38.067Z,2.31
2022-12-18T22:58:05.104Z,2.28
2022-12-18T23:00:32.213Z,2.31
2022-12-18T23:03:00.979Z,2.33
2022-12-18T23:05:30.275Z,2.37
2022-12-18T23:07:57.468Z,2.37
2022-12-18T23:10:24.871Z,2.44
2022-12-18T23:12:51.885Z,2.47
2022-12-18T23:15:22.745Z,2.46
2022-12-18T23:17:54.978Z,2.51
2022-12-18T23:20:22.149Z,2.44
2022-12-18T23:22:49.138Z,2.41
2022-12-18T23:25:16.530Z,2.44
2022-12-18T23:27:43.521Z,2.50
2022-12-18T23:30:11.172Z,2.50
2022-12-18T23:32:39.112Z,2.40
2022-12-18T23:35:06.158Z,2.31
2022-12-18T23:37:59.007Z,2.26
2022-12-18T23:40:21.994Z,2.30
2022-12-18T23:42:48.989Z,2.33
2022-12-18T23:45:18.030Z,2.38
2022-12-18T23:47:45.379Z,2.35
2022-12-18T23:50:15.033Z,2.32
2022-12-18T23:52:42.376Z,2.33
2022-12-18T23:55:09.601Z,2.34
2022-12-18T23:57:36.781Z,2.33
